Terminal Aerodrome Forecast
Issued by NWS

Home | Current Version | Previous Version | Text Only | Print | Product List | Glossary On
Versions: 1 2 3 4 5 6 7 8 9 10 11 12 13 14 15 16 17 18 19 20 21 22 23 24 25 26 27 28
000
FTUS44 KHGX 051127
TAFUTS
TAF
KUTS 051127Z 0512/0612 20005KT P6SM SCT015
     FM051600 20009KT P6SM FEW050
     FM052200 17008KT P6SM SCT060
     FM060300 17006KT P6SM SKC=

USA.gov is the U.S. government's official web portal to all federal, state and local government web resources and services.